createdAt,value
2023-01-31T00:52:20.849Z,4.2
2023-01-31T00:52:44.824Z,4.1
2023-01-31T00:53:49.813Z,4.1
2023-01-31T00:54:45.014Z,4.1
2023-01-31T00:55:45.046Z,4.2
2023-01-31T00:56:45.303Z,4.3
2023-01-31T00:57:45.284Z,4.3
2023-01-31T00:58:45.285Z,4.2
2023-01-31T00:59:45.451Z,4.2
2023-01-31T01:00:45.332Z,4.3
2023-01-31T01:01:45.444Z,4.4
2023-01-31T01:02:45.564Z,4.3
2023-01-31T01:03:45.612Z,4.3
2023-01-31T01:04:45.612Z,4.3
2023-01-31T01:05:45.695Z,4.2
2023-01-31T01:06:45.699Z,4.2
2023-01-31T01:07:45.817Z,4.2
2023-01-31T01:08:45.777Z,4.3
2023-01-31T01:09:45.820Z,4.3
2023-01-31T01:10:45.923Z,4.4
2023-01-31T01:11:45.964Z,4.3
2023-01-31T01:12:46.059Z,4.3
2023-01-31T01:13:46.056Z,4.3
2023-01-31T01:14:46.137Z,4.2
2023-01-31T01:15:46.193Z,4.2
2023-01-31T01:16:46.258Z,4.3
2023-01-31T01:17:46.320Z,4.4
2023-01-31T01:19:06.188Z,4.3
2023-01-31T01:19:46.465Z,4.4
2023-01-31T01:20:46.677Z,4.3
2023-01-31T01:22:24.127Z,4.3
2023-01-31T01:22:55.446Z,4.4
2023-01-31T01:23:46.976Z,4.3
2023-01-31T01:26:19.494Z,4.3
2023-01-31T01:26:47.006Z,4.2
2023-01-31T01:27:47.008Z,4.2
2023-01-31T01:28:47.089Z,4.3
2023-01-31T01:29:47.135Z,4.3
2023-01-31T01:30:47.208Z,4.3
2023-01-31T01:31:47.382Z,4.3
2023-01-31T01:32:47.369Z,4.3
2023-01-31T01:33:47.428Z,4.3
2023-01-31T01:34:47.483Z,4.2
2023-01-31T01:35:47.556Z,4.2
2023-01-31T01:36:48.223Z,4.2
2023-01-31T01:37:47.678Z,4.2
2023-01-31T01:38:47.820Z,4.2
2023-01-31T01:39:47.825Z,4.1
2023-01-31T01:40:47.919Z,4.2
2023-01-31T01:41:48.006Z,4.1
2023-01-31T01:42:48.039Z,4
2023-01-31T01:43:48.134Z,3.9
2023-01-31T01:44:48.175Z,4
2023-01-31T01:45:48.253Z,4
2023-01-31T01:46:48.305Z,4.1
2023-01-31T01:47:48.355Z,4.1
2023-01-31T01:48:48.447Z,4
2023-01-31T01:49:48.513Z,3.9
2023-01-31T01:50:48.584Z,4
2023-01-31T01:51:48.647Z,4
2023-01-31T01:52:48.678Z,4.1
2023-01-31T01:53:48.741Z,4.1
2023-01-31T01:54:48.856Z,4.1
2023-01-31T01:55:48.826Z,4.1
2023-01-31T01:56:48.900Z,4.1
2023-01-31T01:57:48.899Z,4.1
2023-01-31T01:58:48.958Z,4.1
2023-01-31T01:59:49.012Z,4
2023-01-31T02:00:49.071Z,4
2023-01-31T02:01:49.163Z,4.1
2023-01-31T02:02:49.158Z,4.1
2023-01-31T02:03:49.238Z,4.1
2023-01-31T02:04:49.299Z,4
2023-01-31T02:05:49.496Z,4
2023-01-31T02:06:49.444Z,4.1
2023-01-31T02:07:49.483Z,4.1
2023-01-31T02:08:49.555Z,4.1
2023-01-31T02:09:49.573Z,4
2023-01-31T02:10:49.679Z,4
2023-01-31T02:11:49.738Z,3.8
2023-01-31T02:12:49.774Z,3.8
2023-01-31T02:13:49.849Z,3.9
2023-01-31T02:14:49.917Z,3.9
2023-01-31T02:15:49.956Z,4
2023-01-31T02:16:50.104Z,4
2023-01-31T02:17:50.083Z,3.9
2023-01-31T02:18:50.134Z,3.9
2023-01-31T02:19:50.168Z,4
2023-01-31T02:21:12.963Z,4
2023-01-31T02:21:50.445Z,4
2023-01-31T02:22:50.353Z,4
2023-01-31T02:23:50.662Z,3.9
2023-01-31T02:24:50.460Z,3.9
2023-01-31T02:25:50.527Z,3.9
2023-01-31T02:26:54.340Z,3.9
2023-01-31T02:27:50.660Z,3.9
2023-01-31T02:28:50.700Z,4
2023-01-31T02:29:50.747Z,3.9
2023-01-31T02:30:50.850Z,3.8
2023-01-31T02:31:50.977Z,3.8
2023-01-31T02:33:13.324Z,3.9
2023-01-31T02:33:50.998Z,3.9
2023-01-31T02:34:51.025Z,4
2023-01-31T02:35:53.134Z,4
2023-01-31T02:36:52.196Z,4
2023-01-31T02:37:51.382Z,3.9
2023-01-31T02:38:55.533Z,3.9
2023-01-31T02:39:51.537Z,3.8
2023-01-31T02:41:00.537Z,3.9
2023-01-31T02:41:52.881Z,3.8
2023-01-31T02:42:56.191Z,3.9
2023-01-31T02:43:51.444Z,3.8
2023-01-31T02:44:54.678Z,3.8
2023-01-31T02:45:51.518Z,3.9
2023-01-31T02:47:05.431Z,3.9
2023-01-31T02:47:56.503Z,3.9
2023-01-31T02:49:05.922Z,3.9
2023-01-31T02:49:51.727Z,3.8
2023-01-31T02:50:54.619Z,3.9
2023-01-31T02:51:51.952Z,3.9
2023-01-31T02:53:07.399Z,3.9
2023-01-31T02:53:53.784Z,3.8
2023-01-31T02:55:00.272Z,3.8
2023-01-31T02:55:52.111Z,3.8
2023-01-31T02:56:58.640Z,3.9
2023-01-31T02:57:52.194Z,3.8
2023-01-31T02:58:52.309Z,3.8
2023-01-31T02:59:59.723Z,3.8
2023-01-31T03:00:52.428Z,3.9
2023-01-31T03:01:52.447Z,4
2023-01-31T03:03:01.128Z,3.9
2023-01-31T03:03:52.590Z,3.9
2023-01-31T03:04:52.635Z,3.8
2023-01-31T03:05:59.130Z,3.8
2023-01-31T03:06:52.674Z,3.7
2023-01-31T03:07:52.693Z,3.8
2023-01-31T03:08:57.072Z,3.7
2023-01-31T03:09:52.801Z,3.8
2023-01-31T03:10:52.868Z,3.9
2023-01-31T03:11:58.019Z,3.8
2023-01-31T03:12:52.965Z,3.8
2023-01-31T03:13:53.009Z,3.8
2023-01-31T03:14:58.885Z,3.7
2023-01-31T03:15:53.153Z,3.7
2023-01-31T03:16:53.231Z,3.8
2023-01-31T03:17:56.769Z,3.8
2023-01-31T03:18:53.324Z,3.8
2023-01-31T03:19:53.382Z,3.8
2023-01-31T03:20:56.846Z,3.8
2023-01-31T03:21:53.498Z,3.8
2023-01-31T03:22:53.571Z,3.8
2023-01-31T03:23:57.612Z,3.8
2023-01-31T03:24:53.660Z,3.8
2023-01-31T03:25:53.840Z,3.7
2023-01-31T03:27:12.703Z,3.8
2023-01-31T03:27:53.823Z,3.9
2023-01-31T03:28:53.897Z,3.9
2023-01-31T03:30:08.050Z,3.9
2023-01-31T03:30:54.093Z,4
2023-01-31T03:31:54.257Z,3.9
2023-01-31T03:33:07.203Z,4
2023-01-31T03:33:54.249Z,3.8
2023-01-31T03:34:54.279Z,3.7
2023-01-31T03:36:11.025Z,3.8
2023-01-31T03:36:54.372Z,3.8
2023-01-31T03:37:54.481Z,3.7
2023-01-31T03:39:09.111Z,3.7
2023-01-31T03:39:54.566Z,3.7
2023-01-31T03:40:54.640Z,3.7
2023-01-31T03:42:06.924Z,3.7
2023-01-31T03:42:54.747Z,3.7
2023-01-31T03:43:54.800Z,3.8
2023-01-31T03:45:07.681Z,3.6
2023-01-31T03:45:54.991Z,3.6
2023-01-31T03:46:54.981Z,3.5
2023-01-31T03:48:08.843Z,3.5
2023-01-31T03:48:55.122Z,3.6
2023-01-31T03:49:55.231Z,3.6
2023-01-31T03:51:10.670Z,3.6
2023-01-31T03:51:55.283Z,3.5
2023-01-31T03:52:55.369Z,3.3
2023-01-31T03:54:10.303Z,3.4
2023-01-31T03:54:55.491Z,3.5
2023-01-31T03:55:55.577Z,3.6
2023-01-31T03:57:09.601Z,3.5
2023-01-31T03:57:55.698Z,3.4
2023-01-31T03:58:55.849Z,3.5
2023-01-31T04:00:08.811Z,3.4
2023-01-31T04:00:55.885Z,3.4
2023-01-31T04:01:56.019Z,3.4
2023-01-31T04:03:08.859Z,3.3
2023-01-31T04:03:56.052Z,3.4
2023-01-31T04:04:56.149Z,3.4
2023-01-31T04:06:12.174Z,3.4
2023-01-31T04:06:56.213Z,3.4
2023-01-31T04:07:56.284Z,3.5
2023-01-31T04:09:11.197Z,3.5
2023-01-31T04:09:56.423Z,3.4
2023-01-31T04:10:56.508Z,3.3
2023-01-31T04:12:10.515Z,3.3
2023-01-31T04:12:56.568Z,3.3
2023-01-31T04:13:56.669Z,3.3
2023-01-31T04:15:10.518Z,3.3
2023-01-31T04:15:56.784Z,3.3
2023-01-31T04:16:56.782Z,3.3
2023-01-31T04:18:10.971Z,3.3
2023-01-31T04:18:56.890Z,3.4
2023-01-31T04:19:56.952Z,3.3
2023-01-31T04:21:11.049Z,3.4
2023-01-31T04:21:57.015Z,3.4
2023-01-31T04:22:57.079Z,3.4
2023-01-31T04:24:13.925Z,3.4
2023-01-31T04:24:57.228Z,3.3
2023-01-31T04:25:57.325Z,3.3
2023-01-31T04:27:11.526Z,3.3
2023-01-31T04:27:57.395Z,3.3
2023-01-31T04:28:57.457Z,3.3
2023-01-31T04:31:47.875Z,3.5
2023-01-31T04:31:57.761Z,3.3
2023-01-31T04:32:57.690Z,3.3
2023-01-31T04:33:57.973Z,3.3
2023-01-31T04:34:57.807Z,3.3
2023-01-31T04:35:57.925Z,3.4
2023-01-31T04:36:57.937Z,3.4
2023-01-31T04:38:07.149Z,3.3
2023-01-31T04:38:58.047Z,3.4
2023-01-31T04:40:05.418Z,3.3
2023-01-31T04:41:15.414Z,3.3
2023-01-31T04:42:15.545Z,3.3
2023-01-31T04:42:58.308Z,3.2
2023-01-31T04:44:07.148Z,3.1
2023-01-31T04:44:58.468Z,3.2
2023-01-31T04:46:13.528Z,3.2
2023-01-31T04:47:20.369Z,3.1
2023-01-31T04:48:11.708Z,3
2023-01-31T04:48:58.659Z,3.1
2023-01-31T04:50:44.463Z,3.3
2023-01-31T04:50:58.776Z,3.2
2023-01-31T04:52:21.424Z,3.3
2023-01-31T04:53:18.954Z,3.2
2023-01-31T04:54:13.995Z,3.1
2023-01-31T04:54:59.019Z,3
2023-01-31T04:56:15.851Z,2.9
2023-01-31T04:56:59.404Z,2.8
2023-01-31T04:57:59.286Z,2.9
2023-01-31T04:59:15.733Z,2.9
2023-01-31T04:59:59.348Z,3
2023-01-31T05:00:59.485Z,3
2023-01-31T05:02:24.381Z,3.1
2023-01-31T05:02:59.558Z,3.1
2023-01-31T05:03:59.586Z,3.2
2023-01-31T05:05:22.085Z,3.1
2023-01-31T05:05:59.726Z,3.1
2023-01-31T05:06:59.706Z,2.9
2023-01-31T05:08:25.437Z,3
2023-01-31T05:08:59.864Z,3.1
2023-01-31T05:09:59.901Z,3.2
2023-01-31T05:11:22.304Z,3.2
2023-01-31T05:12:00.015Z,3.1
2023-01-31T05:13:00.111Z,3.2
2023-01-31T05:14:22.369Z,3.1
2023-01-31T05:15:00.231Z,3
2023-01-31T05:16:00.320Z,2.9
2023-01-31T05:17:20.484Z,2.9
2023-01-31T05:18:00.434Z,3
2023-01-31T05:19:00.478Z,2.9
2023-01-31T05:20:19.644Z,3
2023-01-31T05:21:00.641Z,2.9
2023-01-31T05:22:00.772Z,3
2023-01-31T05:23:27.114Z,3.2
2023-01-31T05:24:00.813Z,3.2
2023-01-31T05:25:00.903Z,3.1
2023-01-31T05:26:21.623Z,3.3
2023-01-31T05:27:01.018Z,3.3
2023-01-31T05:28:01.063Z,3.3
2023-01-31T05:29:19.068Z,3.2
2023-01-31T05:30:01.143Z,3.1
2023-01-31T05:31:01.223Z,3.1
2023-01-31T05:32:05.631Z,3.1
2023-01-31T05:33:01.252Z,3.2
2023-01-31T05:34:01.301Z,3.2
2023-01-31T05:35:28.729Z,3.2
2023-01-31T05:36:01.399Z,3.2
2023-01-31T05:37:01.466Z,3
2023-01-31T05:38:31.332Z,2.8
2023-01-31T05:39:01.949Z,2.8
2023-01-31T05:40:02.056Z,2.9
2023-01-31T05:41:02.086Z,2.9
2023-01-31T05:42:01.990Z,3
2023-01-31T05:43:02.171Z,2.8
2023-01-31T05:44:01.905Z,2.9
2023-01-31T05:45:01.928Z,2.9
2023-01-31T05:46:02.540Z,2.8
2023-01-31T05:47:31.031Z,2.8
2023-01-31T05:48:02.480Z,2.8
2023-01-31T05:49:02.256Z,2.9
2023-01-31T05:50:02.241Z,3
2023-01-31T05:51:02.340Z,3.2
2023-01-31T05:52:02.768Z,3.1
2023-01-31T05:53:02.996Z,3.2
2023-01-31T05:54:02.927Z,3.2
2023-01-31T05:55:02.828Z,3.1
2023-01-31T05:56:02.787Z,3.1
2023-01-31T05:57:02.806Z,3.1
2023-01-31T05:58:02.747Z,3.1
2023-01-31T05:59:02.844Z,3
2023-01-31T06:00:02.830Z,2.9
2023-01-31T06:01:02.872Z,3
2023-01-31T06:02:03.013Z,3
2023-01-31T06:03:03.207Z,3
2023-01-31T06:04:03.102Z,3.1
2023-01-31T06:05:03.184Z,3.1
2023-01-31T06:06:03.208Z,3
2023-01-31T06:07:06.301Z,3
2023-01-31T06:08:12.561Z,2.9
2023-01-31T06:09:03.419Z,2.8
2023-01-31T06:10:03.653Z,2.8
2023-01-31T06:11:32.391Z,2.8
2023-01-31T06:12:03.529Z,2.9
2023-01-31T06:13:03.632Z,2.9
2023-01-31T06:14:08.909Z,3
2023-01-31T06:15:03.692Z,2.9
2023-01-31T06:16:03.697Z,2.9
2023-01-31T06:17:35.231Z,2.9
2023-01-31T06:18:03.773Z,2.9
2023-01-31T06:19:18.855Z,2.7
2023-01-31T06:20:12.396Z,2.8
2023-01-31T06:21:12.029Z,2.9
2023-01-31T06:22:03.928Z,2.9
2023-01-31T06:23:11.416Z,3
2023-01-31T06:24:04.041Z,2.9
2023-01-31T06:25:11.486Z,3
2023-01-31T06:26:04.170Z,3
2023-01-31T06:27:07.425Z,2.9
2023-01-31T06:28:04.264Z,2.9
2023-01-31T06:29:07.239Z,2.8
2023-01-31T06:30:04.384Z,2.8
2023-01-31T06:31:09.561Z,3
2023-01-31T06:32:04.937Z,3.1
2023-01-31T06:33:06.985Z,3
2023-01-31T06:34:04.629Z,2.9
2023-01-31T06:35:08.972Z,3
2023-01-31T06:36:04.768Z,2.8
2023-01-31T06:37:08.314Z,2.9
2023-01-31T06:38:04.842Z,2.9
2023-01-31T06:39:07.721Z,2.9
2023-01-31T06:40:04.913Z,2.8
2023-01-31T06:41:07.801Z,2.8
2023-01-31T06:42:05.001Z,2.8
2023-01-31T06:43:08.154Z,2.7
2023-01-31T06:44:05.235Z,2.7
2023-01-31T06:45:07.684Z,2.8
2023-01-31T06:46:05.191Z,2.6
2023-01-31T06:47:07.145Z,2.7
2023-01-31T06:48:06.497Z,2.7
2023-01-31T06:49:12.402Z,2.8
2023-01-31T06:50:05.585Z,2.8
2023-01-31T06:51:07.597Z,2.7
2023-01-31T06:52:05.613Z,2.8
2023-01-31T06:53:07.100Z,2.7
2023-01-31T06:54:05.728Z,2.7
2023-01-31T06:55:07.376Z,2.6
2023-01-31T06:56:05.984Z,2.6
2023-01-31T06:57:07.243Z,2.6
2023-01-31T06:58:06.004Z,2.7
2023-01-31T06:59:07.707Z,2.8
2023-01-31T07:00:06.133Z,2.8
2023-01-31T07:01:09.371Z,2.8
2023-01-31T07:02:06.231Z,2.8
2023-01-31T07:03:07.186Z,2.7
2023-01-31T07:04:06.502Z,2.7
2023-01-31T07:05:09.154Z,2.8
2023-01-31T07:06:06.390Z,2.9
2023-01-31T07:07:08.733Z,3
2023-01-31T07:08:06.509Z,3.1
2023-01-31T07:09:07.147Z,3
2023-01-31T07:10:06.664Z,2.9
2023-01-31T07:11:07.215Z,2.9
2023-01-31T07:12:06.760Z,2.9
2023-01-31T07:13:09.459Z,3
2023-01-31T07:14:06.885Z,3
2023-01-31T07:15:09.320Z,2.9
2023-01-31T07:16:07.194Z,3
2023-01-31T07:17:16.638Z,2.9
2023-01-31T07:18:07.129Z,2.9
2023-01-31T07:19:08.893Z,2.9
2023-01-31T07:20:07.244Z,3
2023-01-31T07:21:08.232Z,3.1
2023-01-31T07:22:07.381Z,3.1
2023-01-31T07:23:08.370Z,3.2
2023-01-31T07:24:07.520Z,3.3
2023-01-31T07:25:08.612Z,3.2
2023-01-31T07:26:07.644Z,3
2023-01-31T07:27:08.147Z,3.2
2023-01-31T07:28:07.774Z,3.1
2023-01-31T07:29:08.795Z,3.1
2023-01-31T07:30:07.909Z,3.1
2023-01-31T07:31:08.311Z,3.2
2023-01-31T07:32:08.084Z,3.2
2023-01-31T07:33:08.834Z,3.2
2023-01-31T07:34:08.190Z,3.3
2023-01-31T07:35:08.300Z,3.3
2023-01-31T07:36:08.313Z,3.2
2023-01-31T07:37:08.364Z,3.1
2023-01-31T07:38:09.849Z,3.3
2023-01-31T07:39:08.481Z,3.4
2023-01-31T07:40:08.580Z,3.3
2023-01-31T07:41:08.652Z,3.3
2023-01-31T07:42:08.680Z,3.3
2023-01-31T07:43:10.242Z,3.3
2023-01-31T07:44:08.845Z,3.3
2023-01-31T07:45:22.293Z,3.3
2023-01-31T07:46:09.044Z,3.3
2023-01-31T07:47:09.336Z,3.3
2023-01-31T07:48:09.090Z,3.2
2023-01-31T07:49:09.163Z,3.3
2023-01-31T07:50:09.176Z,3.3
2023-01-31T07:51:09.249Z,3.3
2023-01-31T07:52:09.420Z,3.3
2023-01-31T07:53:10.092Z,3.3
2023-01-31T07:54:09.368Z,3.3
2023-01-31T07:55:09.418Z,3.3
2023-01-31T07:56:09.483Z,3.5
2023-01-31T07:57:22.158Z,3.5
2023-01-31T07:58:09.567Z,3.5
2023-01-31T07:59:21.295Z,3.4
2023-01-31T08:00:09.680Z,3.4
2023-01-31T08:01:21.968Z,3.4
2023-01-31T08:02:09.854Z,3.5
2023-01-31T08:03:21.196Z,3.5
2023-01-31T08:04:20.414Z,3.5
2023-01-31T08:05:13.425Z,3.4
2023-01-31T08:06:10.036Z,3.4
2023-01-31T08:07:15.950Z,3.4
2023-01-31T08:08:10.174Z,3.4
2023-01-31T08:09:21.397Z,3.4
2023-01-31T08:10:10.263Z,3.4
2023-01-31T08:11:23.698Z,3.4
2023-01-31T08:12:15.568Z,3.5
2023-01-31T08:13:23.605Z,3.5
2023-01-31T08:14:10.512Z,3.6
2023-01-31T08:15:22.329Z,3.6
2023-01-31T08:16:15.631Z,3.6
2023-01-31T08:17:22.642Z,3.6
2023-01-31T08:18:15.751Z,3.6
2023-01-31T08:19:21.666Z,3.7
2023-01-31T08:20:15.897Z,3.7
2023-01-31T08:21:17.962Z,3.7
2023-01-31T08:22:12.887Z,3.7
2023-01-31T08:23:22.292Z,3.7
2023-01-31T08:24:11.126Z,3.6
2023-01-31T08:25:24.363Z,3.7
2023-01-31T08:26:11.288Z,3.7
2023-01-31T08:27:24.368Z,3.8
2023-01-31T08:28:11.399Z,3.7
2023-01-31T08:29:21.469Z,3.8
2023-01-31T08:30:11.536Z,3.8
2023-01-31T08:31:21.424Z,3.8
2023-01-31T08:32:11.941Z,3.8
2023-01-31T08:33:23.579Z,3.8
2023-01-31T08:34:11.790Z,3.9
2023-01-31T08:35:21.790Z,3.9
2023-01-31T08:36:11.915Z,3.9
2023-01-31T08:37:23.138Z,3.9
2023-01-31T08:38:16.509Z,3.9
2023-01-31T08:39:23.437Z,3.9
2023-01-31T08:40:12.212Z,4
2023-01-31T08:41:22.152Z,4
2023-01-31T08:42:12.902Z,4
2023-01-31T08:43:23.837Z,4
2023-01-31T08:44:12.446Z,4.1
2023-01-31T08:45:23.663Z,4.1
2023-01-31T08:46:12.665Z,4
2023-01-31T08:47:23.716Z,4
2023-01-31T08:48:46.382Z,4.1
2023-01-31T08:51:23.537Z,4
2023-01-31T08:53:55.135Z,4.1
2023-01-31T08:54:28.912Z,4.1
2023-01-31T08:55:29.177Z,4
2023-01-31T08:56:53.442Z,4.1
2023-01-31T08:57:28.923Z,4.1
2023-01-31T08:58:28.929Z,4.1
2023-01-31T08:59:53.827Z,4.1
2023-01-31T09:00:29.013Z,4
2023-01-31T09:01:29.197Z,4.1
2023-01-31T09:02:53.759Z,4.2
2023-01-31T09:03:29.066Z,4.2
2023-01-31T09:04:29.108Z,4.2
2023-01-31T09:05:54.428Z,4.2
2023-01-31T09:06:29.250Z,4.2
2023-01-31T09:07:29.156Z,4.2
2023-01-31T09:08:54.448Z,4.1
2023-01-31T09:09:30.565Z,4.1
2023-01-31T09:10:29.329Z,4.1
2023-01-31T09:11:54.110Z,4.2
2023-01-31T09:12:30.008Z,4.2
2023-01-31T09:13:30.043Z,4.2
2023-01-31T09:14:54.523Z,4.1
2023-01-31T09:15:29.977Z,4.1
2023-01-31T09:16:30.001Z,4.1
2023-01-31T09:17:54.399Z,4.2
2023-01-31T09:18:30.084Z,4.2
2023-01-31T09:19:30.143Z,4.3
2023-01-31T09:20:30.068Z,4.2
2023-01-31T09:21:30.124Z,4.1
2023-01-31T09:22:30.351Z,4.2
2023-01-31T09:23:56.300Z,4.3
2023-01-31T09:24:30.247Z,4.3
2023-01-31T09:25:42.985Z,4.3
2023-01-31T09:26:57.998Z,4.3
2023-01-31T09:27:30.974Z,4.3
2023-01-31T09:28:30.870Z,4.3
2023-01-31T09:29:56.773Z,4.3
2023-01-31T09:30:30.988Z,4.3
2023-01-31T09:31:31.187Z,4.4
2023-01-31T09:32:54.894Z,4.4
2023-01-31T09:33:31.013Z,4.4
2023-01-31T09:34:30.950Z,4.4
2023-01-31T09:35:55.430Z,4.3
2023-01-31T09:36:31.006Z,4.3
2023-01-31T09:37:31.049Z,4.3
2023-01-31T09:38:57.130Z,4.3
2023-01-31T09:39:31.155Z,4.3
2023-01-31T09:40:31.221Z,4.3
2023-01-31T09:41:56.123Z,4.3
2023-01-31T09:42:31.993Z,4.4
2023-01-31T09:43:31.416Z,4.4
2023-01-31T09:44:57.433Z,4.4
2023-01-31T09:45:33.077Z,4.4
2023-01-31T09:46:32.683Z,4.4
2023-01-31T09:47:59.186Z,4.4
2023-01-31T09:48:31.969Z,4.4
2023-01-31T09:49:31.948Z,4.4
2023-01-31T09:50:51.859Z,4.5
2023-01-31T09:51:32.013Z,4.5
2023-01-31T09:52:36.968Z,4.5
2023-01-31T09:53:56.259Z,4.6
2023-01-31T09:54:32.117Z,4.5
2023-01-31T09:55:32.138Z,4.6
2023-01-31T09:56:43.377Z,4.6
2023-01-31T09:57:32.254Z,4.5
2023-01-31T09:58:32.326Z,4.5
2023-01-31T09:59:57.252Z,4.6
2023-01-31T10:00:32.750Z,4.6
2023-01-31T10:01:32.922Z,4.6
2023-01-31T10:02:57.478Z,4.6
2023-01-31T10:03:33.719Z,4.6
2023-01-31T10:04:32.866Z,4.5
2023-01-31T10:05:33.877Z,4.6
2023-01-31T10:06:38.673Z,4.6
2023-01-31T10:07:32.940Z,4.6
2023-01-31T10:09:00.806Z,4.6
2023-01-31T10:09:32.947Z,4.6
2023-01-31T10:10:33.375Z,4.6
2023-01-31T10:12:02.260Z,4.7
2023-01-31T10:12:37.976Z,4.7
2023-01-31T10:13:33.066Z,4.6
2023-01-31T10:15:01.484Z,4.6
2023-01-31T10:15:33.118Z,4.6
2023-01-31T10:16:33.158Z,4.6
2023-01-31T10:18:00.018Z,4.6
2023-01-31T10:18:33.242Z,4.6
2023-01-31T10:19:33.309Z,4.7
2023-01-31T10:21:00.264Z,4.7
2023-01-31T10:21:33.315Z,4.7
2023-01-31T10:22:33.406Z,4.7
2023-01-31T10:24:01.570Z,4.7
2023-01-31T10:24:33.529Z,4.7
2023-01-31T10:25:33.561Z,4.7
2023-01-31T10:27:00.212Z,4.7
2023-01-31T10:27:33.704Z,4.7
2023-01-31T10:28:33.759Z,4.7
2023-01-31T10:30:02.412Z,4.7
2023-01-31T10:30:33.930Z,4.7
2023-01-31T10:31:34.016Z,4.8
2023-01-31T10:33:02.785Z,4.8
2023-01-31T10:33:34.091Z,4.8
2023-01-31T10:34:34.160Z,4.8
2023-01-31T10:36:00.643Z,4.8
2023-01-31T10:36:34.257Z,4.8
2023-01-31T10:37:34.331Z,4.8
2023-01-31T10:39:02.895Z,4.8
2023-01-31T10:39:34.482Z,4.8
2023-01-31T10:40:34.537Z,4.7
2023-01-31T10:42:02.653Z,4.8
2023-01-31T10:42:34.623Z,4.8
2023-01-31T10:43:34.696Z,4.8
2023-01-31T10:45:01.805Z,4.8
2023-01-31T10:45:34.879Z,4.7
2023-01-31T10:46:34.902Z,4.7
2023-01-31T10:48:01.149Z,4.7
2023-01-31T10:48:35.053Z,4.7
2023-01-31T10:49:35.097Z,4.7
2023-01-31T10:51:04.240Z,4.8
2023-01-31T10:51:35.238Z,4.7
2023-01-31T10:52:35.329Z,4.7
2023-01-31T10:54:01.953Z,4.7
2023-01-31T10:54:35.489Z,4.7
2023-01-31T10:55:36.150Z,4.7
2023-01-31T10:56:48.138Z,4.7
2023-01-31T10:57:35.642Z,4.8
2023-01-31T10:58:35.692Z,4.8
2023-01-31T11:00:05.004Z,4.8
2023-01-31T11:00:35.829Z,4.8
2023-01-31T11:01:35.931Z,4.8
2023-01-31T11:03:03.641Z,4.8
2023-01-31T11:03:36.009Z,4.8
2023-01-31T11:04:36.127Z,4.8
2023-01-31T11:06:08.044Z,4.8
2023-01-31T11:06:36.226Z,4.8
2023-01-31T11:07:36.304Z,4.8
2023-01-31T11:08:56.273Z,4.7
2023-01-31T11:09:36.438Z,4.8
2023-01-31T11:10:36.641Z,4.8
2023-01-31T11:11:37.119Z,4.8
2023-01-31T11:12:36.637Z,4.8
2023-01-31T11:13:39.287Z,4.7
2023-01-31T11:14:37.559Z,4.7
2023-01-31T11:15:38.356Z,4.7
2023-01-31T11:16:37.033Z,4.7
2023-01-31T11:17:41.332Z,4.7
2023-01-31T11:18:37.145Z,4.8
2023-01-31T11:19:48.176Z,4.8
2023-01-31T11:20:37.217Z,4.8
2023-01-31T11:22:06.812Z,4.7
2023-01-31T11:22:40.657Z,4.8
2023-01-31T11:24:02.190Z,4.8
2023-01-31T11:26:07.191Z,4.8
2023-01-31T11:26:37.657Z,4.8
2023-01-31T11:27:59.604Z,4.8
2023-01-31T11:28:39.839Z,4.8
2023-01-31T11:29:37.850Z,4.8
2023-01-31T11:30:55.110Z,4.9
2023-01-31T11:33:19.544Z,5
2023-01-31T11:33:43.044Z,5
2023-01-31T11:34:38.002Z,5
2023-01-31T11:35:38.115Z,4.9
2023-01-31T11:36:38.130Z,5
2023-01-31T11:37:38.231Z,5
2023-01-31T11:38:38.285Z,4.9
2023-01-31T11:39:56.343Z,5
2023-01-31T11:40:38.358Z,5
2023-01-31T11:41:38.502Z,5
2023-01-31T11:42:38.520Z,5
2023-01-31T11:43:38.593Z,5
2023-01-31T11:44:38.658Z,5
2023-01-31T11:45:56.124Z,5
2023-01-31T11:46:38.775Z,5
2023-01-31T11:47:38.816Z,5.1
2023-01-31T11:48:38.932Z,5.1
2023-01-31T11:49:38.964Z,5.1
2023-01-31T11:50:39.080Z,5.1
2023-01-31T11:51:59.936Z,5.1
2023-01-31T11:52:39.205Z,5.1
2023-01-31T11:53:39.294Z,5.1
2023-01-31T11:54:39.291Z,5.1
2023-01-31T11:55:47.556Z,5.1
2023-01-31T11:56:48.040Z,5.1
2023-01-31T11:57:56.479Z,5.2
2023-01-31T11:58:47.756Z,5.2
2023-01-31T11:59:47.850Z,5.2
2023-01-31T12:00:47.990Z,5.2
2023-01-31T12:01:48.096Z,5.2
2023-01-31T12:02:48.055Z,5.2
2023-01-31T12:04:06.705Z,5.3
2023-01-31T12:04:48.197Z,5.3
2023-01-31T12:05:48.282Z,5.3
2023-01-31T12:06:48.305Z,5.3
2023-01-31T12:07:48.353Z,5.3
2023-01-31T12:08:48.407Z,5.3
2023-01-31T12:09:54.614Z,5.3
2023-01-31T12:10:48.605Z,5.3
2023-01-31T12:11:48.657Z,5.3
2023-01-31T12:12:48.743Z,5.4
2023-01-31T12:13:48.849Z,5.4
2023-01-31T12:14:48.869Z,5.4
2023-01-31T12:15:57.925Z,5.4
2023-01-31T12:16:49.033Z,5.4
2023-01-31T12:17:52.348Z,5.5
2023-01-31T12:18:49.176Z,5.5
2023-01-31T12:19:52.232Z,5.5
2023-01-31T12:20:49.447Z,5.5
2023-01-31T12:21:56.645Z,5.5
2023-01-31T12:22:49.450Z,5.5
2023-01-31T12:23:56.405Z,5.4
2023-01-31T12:24:49.604Z,5.4
2023-01-31T12:25:58.588Z,5.4
2023-01-31T12:27:00.092Z,5.5
2023-01-31T12:27:59.881Z,5.5
2023-01-31T12:29:01.420Z,5.5
2023-01-31T12:30:01.313Z,5.5
2023-01-31T12:31:00.358Z,5.4
2023-01-31T12:32:00.197Z,5.5
2023-01-31T12:33:31.744Z,5.4
2023-01-31T12:33:59.695Z,5.5
2023-01-31T12:35:04.768Z,5.5
2023-01-31T12:35:59.769Z,5.5
2023-01-31T12:37:01.037Z,5.5
2023-01-31T12:38:01.430Z,5.5
2023-01-31T12:39:02.933Z,5.5
2023-01-31T12:40:18.835Z,5.5
2023-01-31T12:41:05.084Z,5.5
2023-01-31T12:41:59.512Z,5.5
2023-01-31T12:43:00.621Z,5.5
2023-01-31T12:43:59.628Z,5.6
2023-01-31T12:45:00.421Z,5.6
2023-01-31T12:46:04.432Z,5.6
2023-01-31T12:47:10.362Z,5.6
2023-01-31T12:47:59.854Z,5.6
2023-01-31T12:49:03.451Z,5.6
2023-01-31T12:49:59.977Z,5.6
2023-01-31T12:51:03.648Z,5.6
2023-01-31T12:52:10.022Z,5.5
2023-01-31T12:53:08.746Z,5.6
2023-01-31T12:54:00.221Z,5.6
2023-01-31T12:55:04.620Z,5.6
2023-01-31T12:56:00.332Z,5.6
2023-01-31T12:57:00.418Z,5.6
2023-01-31T12:58:04.743Z,5.6
2023-01-31T12:59:15.767Z,5.6
2023-01-31T13:00:00.620Z,5.6
2023-01-31T13:01:04.271Z,5.6
2023-01-31T13:02:00.731Z,5.6
2023-01-31T13:03:02.982Z,5.6
2023-01-31T13:04:07.441Z,5.6
2023-01-31T13:05:01.079Z,5.6
2023-01-31T13:06:01.296Z,5.6
2023-01-31T13:07:06.908Z,5.6
2023-01-31T13:08:01.126Z,5.6
2023-01-31T13:09:07.966Z,5.6
2023-01-31T13:10:20.905Z,5.6
2023-01-31T13:11:01.343Z,5.6
2023-01-31T13:12:03.609Z,5.6
2023-01-31T13:13:09.854Z,5.6
2023-01-31T13:14:02.731Z,5.6
2023-01-31T13:15:04.077Z,5.5
2023-01-31T13:16:11.579Z,5.6
2023-01-31T13:17:01.747Z,5.6
2023-01-31T13:18:01.717Z,5.6
2023-01-31T13:19:08.914Z,5.6
2023-01-31T13:20:01.877Z,5.6
2023-01-31T13:21:02.001Z,5.6
2023-01-31T13:22:01.983Z,5.6
2023-01-31T13:23:02.088Z,5.6
2023-01-31T13:24:02.298Z,5.6
2023-01-31T13:25:14.991Z,5.6
2023-01-31T13:26:02.215Z,5.6
2023-01-31T13:27:02.295Z,5.6
2023-01-31T13:28:15.688Z,5.7
2023-01-31T13:29:02.440Z,5.7
2023-01-31T13:30:07.623Z,5.7
2023-01-31T13:31:20.984Z,5.7
2023-01-31T13:32:02.577Z,5.6
2023-01-31T13:33:19.491Z,5.6
2023-01-31T13:34:12.367Z,5.6
2023-01-31T13:35:02.932Z,5.6
2023-01-31T13:36:06.676Z,5.6
2023-01-31T13:37:27.380Z,5.6
2023-01-31T13:38:03.113Z,5.6
2023-01-31T13:39:03.027Z,5.6
2023-01-31T13:40:04.113Z,5.6
2023-01-31T13:41:03.133Z,5.6
2023-01-31T13:42:03.021Z,5.6
2023-01-31T13:43:13.203Z,5.6
2023-01-31T13:44:05.587Z,5.6
2023-01-31T13:45:03.152Z,5.6
2023-01-31T13:46:05.169Z,5.7
2023-01-31T13:47:03.264Z,5.7
2023-01-31T13:48:04.963Z,5.6
2023-01-31T13:49:03.393Z,5.7
2023-01-31T13:50:05.540Z,5.7
2023-01-31T13:51:03.401Z,5.7
2023-01-31T13:52:04.467Z,5.7
2023-01-31T13:53:03.514Z,5.6
2023-01-31T13:54:05.629Z,5.7
2023-01-31T13:55:03.620Z,5.7
2023-01-31T13:56:07.607Z,5.7
2023-01-31T13:57:22.648Z,5.7
2023-01-31T13:58:39.094Z,5.7
2023-01-31T13:59:26.357Z,5.7
2023-01-31T14:00:26.390Z,5.7
2023-01-31T14:01:39.843Z,5.8
2023-01-31T14:02:26.586Z,5.8
2023-01-31T14:03:27.500Z,5.7
2023-01-31T14:05:49.454Z,5.6
2023-01-31T14:06:53.568Z,5.6
2023-01-31T14:08:04.037Z,5.6
2023-01-31T14:08:53.443Z,5.6
2023-01-31T14:10:40.537Z,5.6
2023-01-31T14:10:53.918Z,5.6
2023-01-31T14:12:04.864Z,5.7
2023-01-31T14:12:51.830Z,5.7
2023-01-31T14:14:14.710Z,5.7
2023-01-31T14:14:51.973Z,5.6
2023-01-31T14:16:03.235Z,5.6
2023-01-31T14:16:53.217Z,5.6
2023-01-31T14:18:03.252Z,5.6
2023-01-31T14:18:56.728Z,5.6
2023-01-31T14:20:04.934Z,5.6
2023-01-31T14:20:51.973Z,5.6
2023-01-31T14:22:08.311Z,5.6
2023-01-31T14:22:51.937Z,5.6
2023-01-31T14:23:52.475Z,5.6
2023-01-31T14:24:51.955Z,5.6
2023-01-31T14:26:06.896Z,5.6
2023-01-31T14:26:52.342Z,5.6
2023-01-31T14:28:09.890Z,5.6
2023-01-31T14:28:51.838Z,5.6
2023-01-31T14:30:07.916Z,5.5
2023-01-31T14:30:52.278Z,5.5
2023-01-31T14:32:06.598Z,5.5
2023-01-31T14:32:52.128Z,5.5
2023-01-31T14:33:54.278Z,5.5
2023-01-31T14:34:56.371Z,5.5
2023-01-31T14:36:07.641Z,5.5
2023-01-31T14:36:49.523Z,5.5
2023-01-31T14:38:06.986Z,5.5
2023-01-31T14:38:55.823Z,5.5
2023-01-31T14:40:07.734Z,5.7
2023-01-31T14:40:57.069Z,5.5
2023-01-31T14:42:06.912Z,5.5
2023-01-31T14:43:01.178Z,5.5
2023-01-31T14:43:52.060Z,5.5
2023-01-31T14:45:50.054Z,5.5
2023-01-31T14:45:51.879Z,5.5
2023-01-31T14:46:50.151Z,5.5
2023-01-31T14:47:50.235Z,5.5
2023-01-31T14:48:50.206Z,5.5
2023-01-31T14:49:50.312Z,5.5
2023-01-31T14:50:50.349Z,5.5
2023-01-31T14:52:05.574Z,5.5
2023-01-31T14:52:50.436Z,5.5